Aledo, TX (76008)

9:42 AM CDT on October 25, 2014 (GMT -0500)
LOCKDOWN21/83 | Change Station
CLOSE
Current Station
Personal Weather Station
Location: Aledo, TX
Elevation: 876 ft
Nearby Weather Stations

Elev 876 ft 32.69 °N, 97.61 °W | Updated 1 second ago

Clear
Clear
73.1 °F
Feels Like 75 °F
N
0.0
Wind Variable Wind from SE
Gusts 2.0 mph

Today
High -- | Low -- °F
--% Chance of Precip.
Yesterday
High -- | Low -- °F
Precip. -- in
7:42 AM 6:46 PM
Waxing Crescent, 3% visible
Pressure 30.13 in
Visibility 10.0 miles
Clouds Clear
Heat Index 75 °F
Dew Point 64 °F
Humidity 73%
Rainfall 0.00 in
Snow Depth Not available.
UV 1 out of 12
Pollen 5.20 out of 12
Ozone Good
PM2.5 Moderate
Flu Activity Local Activity
METAR KNFW 251352Z 16006KT 10SM CLR 21/14 A3018 RMK AO2 SLP201 T02110144 CHINO N VISNO N $

More Conditions Fewer Conditions

Pressure 30.13 in
Visibility 10.0 miles
Clouds Clear
Heat Index 75 °F
Dew Point 64 °F
Humidity 73%
Rainfall 0.00 in
Snow Depth Not available.
UV 1 out of 12
Pollen 5.20 out of 12
Ozone Good
PM2.5 Moderate
Flu Activity Local Activity
METAR KNFW 251352Z 16006KT 10SM CLR 21/14 A3018 RMK AO2 SLP201 T02110144 CHINO N VISNO N $

More Conditions Fewer Conditions

10-Day Weather Forecast

Almanac

Astronomy

Oct. 25, 2014 Rise Set
Actual Time 7:42 AM CDT 6:46 PM CDT
Civil Twilight 7:17 AM CDT 7:11 PM CDT
Nautical Twilight 6:48 AM CDT 7:40 PM CDT
Astronomical Twilight 6:19 AM CDT 8:08 PM CDT
Moon 9:18 AM CDT 8:14 PM CDT
Length of Visible Light 11h 54m
Length of Day
11h 04m
Tomorrow will be 1m 50s shorter.
Waxing Crescent, 3% of the Moon is Illuminated
Today
Waxing Crescent
Oct 30
First Quarter
Nov 6
Full
Nov 14
Last Quarter
Nov 22
New

Today's Extremes

State Highs State Lows

Community

WunderPhotos

Upload Photos

1,764,861 photos uploaded!

Nearby

Air Quality

  Air Quality AQ Index Pollutant
Yesterday Moderate
PM2.5
Yesterday Moderate
OZONE
Current Moderate
PM2.5
Current Good
OZONE
Saturday Moderate
OZONE
Saturday Good
PM10
Sunday Moderate
OZONE
Sunday Good
PM10
Monday Good
OZONE
Monday Good
PM10
Tuesday Good
OZONE
Tuesday Good
PM10

Snow Depth

Station Depth Elevation
No new snow has been reported.

Earthquake Activity

City Distance Mag. Time & Date
No recent earthquake activity has been reported nearby.
Minimum magnitude displayed is 2.5.

Coastal Water Temperatures

Place Temperature
No Stations Reporting

Nearby Weather Stations